createdAt,value
2022-08-09T00:01:54.443Z,92563.25
2022-08-09T00:05:03.411Z,92569.28
2022-08-09T00:08:32.692Z,92566.22
2022-08-09T00:12:02.910Z,92565.66
2022-08-09T00:15:08.589Z,92567.91
2022-08-09T00:25:03.999Z,92571.38
2022-08-09T00:28:15.747Z,92561.94
2022-08-09T00:34:46.280Z,92551.78
2022-08-09T00:37:57.285Z,92565.25
2022-08-09T00:41:08.315Z,92566.50
2022-08-09T00:44:27.460Z,92564.28
2022-08-09T00:50:54.087Z,92556.50
2022-08-09T00:54:00.966Z,92562.00
2022-08-09T00:57:08.796Z,92563.25
2022-08-09T01:00:21.680Z,92561.91
2022-08-09T01:03:46.304Z,92555.50
2022-08-09T01:07:01.651Z,92545.72
2022-08-09T01:10:33.055Z,92545.28
2022-08-09T01:14:05.283Z,92534.97
2022-08-09T01:17:18.642Z,92524.91
2022-08-09T01:20:36.169Z,92496.53
2022-08-09T01:24:02.045Z,92525.16
2022-08-09T01:27:13.404Z,92528.53
2022-08-09T01:30:33.401Z,92532.81
2022-08-09T01:40:38.696Z,92514.09
2022-08-09T01:44:09.527Z,92497.94
2022-08-09T01:53:58.223Z,92499.59
2022-08-09T01:57:08.117Z,92508.44
2022-08-09T02:03:38.008Z,92496.03
2022-08-09T02:10:29.702Z,92477.97
2022-08-09T02:13:43.728Z,92496.38
2022-08-09T02:23:52.545Z,92480.47
2022-08-09T02:30:26.432Z,92497.13
2022-08-09T02:33:58.369Z,92492.69
2022-08-09T02:40:26.856Z,92500.59
2022-08-09T02:43:53.544Z,92527.03
2022-08-09T02:54:00.846Z,92516.22
2022-08-09T02:57:14.001Z,92504.50
2022-08-09T03:00:29.452Z,92493.19
2022-08-09T03:04:12.442Z,92494.78
2022-08-09T03:07:12.363Z,92507.59
2022-08-09T03:10:21.077Z,92508.66
2022-08-09T03:13:27.486Z,92516.63
2022-08-09T03:16:49.784Z,92509.44
2022-08-09T03:20:05.281Z,92501.16
2022-08-09T03:23:24.469Z,92501.31
2022-08-09T03:26:31.921Z,92507.56
2022-08-09T03:29:43.172Z,92515.00
2022-08-09T03:33:17.881Z,92489.59
2022-08-09T03:36:27.262Z,92503.63
2022-08-09T03:39:37.594Z,92495.69
2022-08-09T03:42:43.005Z,92491.31
2022-08-09T03:46:05.324Z,92486.69
2022-08-09T03:49:12.335Z,92482.44
2022-08-09T03:52:25.306Z,92500.53
2022-08-09T03:55:36.324Z,92505.47
2022-08-09T03:58:46.599Z,92510.50
2022-08-09T04:01:59.206Z,92466.16
2022-08-09T04:08:29.094Z,92451.91
2022-08-09T04:12:00.440Z,92465.59
2022-08-09T04:15:11.549Z,92458.75
2022-08-09T04:18:24.916Z,92449.44
2022-08-09T04:21:38.513Z,92436.25
2022-08-09T04:24:44.331Z,92453.13
2022-08-09T04:27:49.402Z,92476.09
2022-08-09T04:30:53.349Z,92454.75
2022-08-09T04:33:59.346Z,92456.56
2022-08-09T04:37:03.548Z,92467.94
2022-08-09T04:40:11.890Z,92445.50
2022-08-09T04:43:25.266Z,92445.88
2022-08-09T04:46:37.946Z,92486.91
2022-08-09T04:50:03.584Z,92474.09
2022-08-09T04:53:13.790Z,92447.50
2022-08-09T04:56:20.481Z,92441.19
2022-08-09T04:59:34.351Z,92453.09
2022-08-09T05:02:39.688Z,92474.00
2022-08-09T05:05:51.726Z,92446.09
2022-08-09T05:09:01.646Z,92440.09
2022-08-09T05:12:07.321Z,92443.22
2022-08-09T05:15:11.994Z,92466.09
2022-08-09T05:18:50.245Z,92415.22
2022-08-09T05:21:59.180Z,92446.28
2022-08-09T05:25:06.615Z,92435.84
2022-08-09T05:28:15.640Z,92398.25
2022-08-09T05:31:23.647Z,92403.28
2022-08-09T05:34:48.355Z,92405.50
2022-08-09T05:37:54.826Z,92394.38
2022-08-09T05:41:01.490Z,92405.84
2022-08-09T05:44:07.668Z,92380.66
2022-08-09T05:47:14.135Z,92367.06
2022-08-09T05:50:34.992Z,92357.06
2022-08-09T05:53:56.778Z,92361.69
2022-08-09T05:57:01.656Z,92338.84
2022-08-09T06:00:12.184Z,92347.88
2022-08-09T06:03:20.071Z,92344.97
2022-08-09T06:06:25.344Z,92339.34
2022-08-09T06:09:41.149Z,92340.84
2022-08-09T06:13:02.776Z,92337.53
2022-08-09T06:16:07.125Z,92325.25
2022-08-09T06:19:11.234Z,92336.38
2022-08-09T06:22:16.113Z,92313.13
2022-08-09T06:25:21.280Z,92327.28
2022-08-09T06:28:34.760Z,92354.56
2022-08-09T06:31:40.349Z,92333.81
2022-08-09T06:35:06.362Z,92342.81
2022-08-09T06:38:10.523Z,92380.09
2022-08-09T06:41:18.723Z,92359.25
2022-08-09T06:44:24.379Z,92363.44
2022-08-09T06:47:30.247Z,92347.38
2022-08-09T06:50:43.924Z,92352.53
2022-08-09T06:53:50.560Z,92337.22
2022-08-09T06:56:56.988Z,92327.84
2022-08-09T07:00:57.360Z,92319.50
2022-08-09T07:03:29.057Z,92309.13
2022-08-09T07:06:38.737Z,92374.38
2022-08-09T07:09:55.411Z,92324.63
2022-08-09T07:16:41.867Z,92355.59
2022-08-09T07:19:55.539Z,92359.25
2022-08-09T07:23:18.467Z,92316.72
2022-08-09T07:29:43.460Z,92346.91
2022-08-09T07:42:56.806Z,92351.13
2022-08-09T07:46:03.105Z,92320.91
2022-08-09T07:56:07.281Z,92311.75
2022-08-09T07:59:34.218Z,92292.41
2022-08-09T08:02:53.540Z,92315.72
2022-08-09T08:06:07.992Z,92288.25
2022-08-09T08:09:38.716Z,92317.78
2022-08-09T08:16:29.298Z,92311.13
2022-08-09T08:19:33.934Z,92315.06
2022-08-09T08:22:40.809Z,92334.56
2022-08-09T08:25:48.552Z,92328.97
2022-08-09T08:28:54.632Z,92298.69
2022-08-09T08:35:59.875Z,92307.25
2022-08-09T08:46:32.598Z,92297.94
2022-08-09T08:49:48.132Z,92314.22
2022-08-09T08:52:59.495Z,92336.97
2022-08-09T08:56:03.937Z,92322.59
2022-08-09T08:59:20.045Z,92307.47
2022-08-09T09:02:31.163Z,92313.44
2022-08-09T09:05:58.471Z,92335.75
2022-08-09T09:09:06.643Z,92324.59
2022-08-09T09:12:29.121Z,92336.06
2022-08-09T09:15:33.415Z,92329.78
2022-08-09T09:18:37.812Z,92337.16
2022-08-09T09:22:26.710Z,92317.22
2022-08-09T09:26:02.978Z,92315.63
2022-08-09T09:29:16.672Z,92327.69
2022-08-09T09:36:02.383Z,92351.09
2022-08-09T09:39:15.922Z,92324.59
2022-08-09T09:42:31.069Z,92372.88
2022-08-09T09:46:41.772Z,92357.19
2022-08-09T09:49:56.153Z,92348.47
2022-08-09T09:52:54.746Z,92339.50
2022-08-09T09:56:05.450Z,92349.63
2022-08-09T09:59:12.483Z,92341.63
2022-08-09T10:02:21.360Z,92341.63
2022-08-09T10:06:00.685Z,92343.38
2022-08-09T10:09:21.482Z,92335.13
2022-08-09T10:12:57.994Z,92342.38
2022-08-09T10:16:55.690Z,92321.25
2022-08-09T10:19:39.414Z,92318.75
2022-08-09T10:22:43.450Z,92309.56
2022-08-09T10:26:07.886Z,92333.94
2022-08-09T10:29:36.742Z,92330.59
2022-08-09T10:32:45.124Z,92320.31
2022-08-09T10:35:51.382Z,92328.41
2022-08-09T10:38:59.886Z,92313.63
2022-08-09T10:42:10.908Z,92337.91
2022-08-09T10:45:16.992Z,92330.53
2022-08-09T10:48:39.875Z,92344.69
2022-08-09T10:52:20.188Z,92360.50
2022-08-09T10:55:57.901Z,92339.88
2022-08-09T10:59:30.984Z,92339.91
2022-08-09T11:03:18.800Z,92348.38
2022-08-09T11:09:53.213Z,92348.38
2022-08-09T11:13:54.099Z,92345.41
2022-08-09T11:16:53.801Z,92343.09
2022-08-09T11:20:20.383Z,92340.34
2022-08-09T11:23:30.079Z,92354.44
2022-08-09T11:28:02.985Z,92353.19
2022-08-09T11:30:57.096Z,92351.88
2022-08-09T11:34:10.158Z,92351.16
2022-08-09T11:37:43.169Z,92364.28
2022-08-09T11:40:58.911Z,92348.88
2022-08-09T11:44:04.432Z,92364.50
2022-08-09T11:47:14.360Z,92353.03
2022-08-09T11:59:20.652Z,92365.69
2022-08-09T12:05:52.607Z,92374.56
2022-08-09T12:09:02.480Z,92375.34
2022-08-09T12:29:11.660Z,92394.06
2022-08-09T12:31:59.150Z,92393.31
2022-08-09T12:35:10.801Z,92387.88
2022-08-09T12:38:37.862Z,92395.78
2022-08-09T12:41:42.124Z,92390.03
2022-08-09T12:44:54.703Z,92390.50
2022-08-09T12:47:58.615Z,92394.75
2022-08-09T12:54:25.903Z,92402.94
2022-08-09T12:57:46.728Z,92402.84
2022-08-09T13:00:50.734Z,92400.03
2022-08-09T13:07:50.255Z,92412.34
2022-08-09T13:11:00.144Z,92404.47
2022-08-09T13:14:43.946Z,92399.63
2022-08-09T13:18:03.806Z,92403.59
2022-08-09T13:22:33.417Z,92414.91
2022-08-09T13:24:53.116Z,92404.78
2022-08-09T13:28:11.525Z,92404.25
2022-08-09T13:32:14.406Z,92419.13
2022-08-09T13:34:50.138Z,92405.31
2022-08-09T13:38:02.490Z,92414.44
2022-08-09T13:41:46.297Z,92425.66
2022-08-09T13:44:35.003Z,92411.66
2022-08-09T13:47:49.452Z,92423.78
2022-08-09T13:50:54.360Z,92420.09
2022-08-09T13:53:59.889Z,92411.22
2022-08-09T13:57:06.510Z,92422.63
2022-08-09T14:00:13.661Z,92427.38
2022-08-09T14:04:05.033Z,92419.69
2022-08-09T14:06:46.685Z,92427.00
2022-08-09T14:09:53.301Z,92424.84
2022-08-09T14:12:59.922Z,92419.41
2022-08-09T14:16:11.411Z,92427.34
2022-08-09T14:19:20.461Z,92412.97
2022-08-09T14:22:27.638Z,92429.19
2022-08-09T14:25:31.605Z,92433.72
2022-08-09T14:28:47.330Z,92430.91
2022-08-09T14:35:11.247Z,92428.34
2022-08-09T14:38:15.447Z,92429.66
2022-08-09T14:41:39.914Z,92427.16
2022-08-09T14:44:59.449Z,92451.69
2022-08-09T14:48:09.872Z,92446.81
2022-08-09T14:54:56.058Z,92452.44
2022-08-09T15:01:22.726Z,92455.28
2022-08-09T15:04:28.959Z,92451.72
2022-08-09T15:07:35.497Z,92438.84
2022-08-09T15:10:39.900Z,92433.63
2022-08-09T15:13:55.773Z,92444.94
2022-08-09T15:17:11.488Z,92446.00
2022-08-09T15:21:55.797Z,92461.22
2022-08-09T15:24:02.327Z,92446.59
2022-08-09T15:27:04.469Z,92457.41
2022-08-09T15:30:57.138Z,92443.47
2022-08-09T15:34:18.225Z,92466.09
2022-08-09T15:38:10.641Z,92459.75
2022-08-09T15:41:09.921Z,92454.84
2022-08-09T15:44:14.751Z,92463.06
2022-08-09T15:47:31.884Z,92452.94
2022-08-09T15:50:49.415Z,92458.06
2022-08-09T15:54:05.762Z,92457.19
2022-08-09T15:57:11.723Z,92464.94
2022-08-09T16:00:26.811Z,92475.88
2022-08-09T16:03:38.114Z,92478.34
2022-08-09T16:06:44.520Z,92459.41
2022-08-09T16:10:04.384Z,92471.88
2022-08-09T16:13:18.444Z,92465.44
2022-08-09T16:16:26.044Z,92468.63
2022-08-09T16:19:36.649Z,92457.22
2022-08-09T16:22:48.857Z,92475.94
2022-08-09T16:25:52.791Z,92455.31
2022-08-09T16:29:11.683Z,92477.59
2022-08-09T16:32:33.292Z,92460.25
2022-08-09T16:36:06.089Z,92469.75
2022-08-09T16:39:16.078Z,92464.47
2022-08-09T16:42:24.369Z,92470.41
2022-08-09T16:45:43.661Z,92465.41
2022-08-09T16:48:54.090Z,92456.81
2022-08-09T16:52:03.545Z,92466.19
2022-08-09T16:55:08.207Z,92469.25
2022-08-09T16:58:21.060Z,92479.22
2022-08-09T17:01:25.310Z,92471.47
2022-08-09T17:04:29.104Z,92463.47
2022-08-09T17:08:46.511Z,92466.03
2022-08-09T17:10:58.286Z,92464.50
2022-08-09T17:14:02.394Z,92468.66
2022-08-09T17:17:26.011Z,92462.59
2022-08-09T17:20:37.317Z,92458.78
2022-08-09T17:24:28.480Z,92459.34
2022-08-09T17:27:06.841Z,92459.75
2022-08-09T17:30:20.733Z,92454.72
2022-08-09T17:33:24.395Z,92448.84
2022-08-09T17:36:29.289Z,92455.59
2022-08-09T17:39:52.154Z,92465.56
2022-08-09T17:43:03.290Z,92461.63
2022-08-09T17:46:22.326Z,92461.66
2022-08-09T17:49:50.669Z,92458.56
2022-08-09T17:53:01.707Z,92461.00
2022-08-09T17:56:09.521Z,92453.44
2022-08-09T17:59:16.742Z,92455.75
2022-08-09T18:02:25.713Z,92453.75
2022-08-09T18:05:38.868Z,92448.84
2022-08-09T18:08:53.261Z,92407.28
2022-08-09T18:12:05.345Z,92454.00
2022-08-09T18:15:50.295Z,92451.00
2022-08-09T18:22:06.504Z,92447.53
2022-08-09T18:25:50.604Z,92445.72
2022-08-09T18:30:36.241Z,92433.03
2022-08-09T18:32:11.720Z,92425.66
2022-08-09T18:35:18.354Z,92437.50
2022-08-09T18:38:45.257Z,92449.13
2022-08-09T18:41:52.692Z,92437.09
2022-08-09T18:45:08.602Z,92455.50
2022-08-09T18:51:38.369Z,92453.56
2022-08-09T18:54:54.784Z,92460.53
2022-08-09T18:57:58.669Z,92455.75
2022-08-09T19:04:34.650Z,92456.25
2022-08-09T19:07:40.395Z,92453.53
2022-08-09T19:10:44.354Z,92447.50
2022-08-09T19:14:03.195Z,92464.97
2022-08-09T19:17:10.146Z,92461.00
2022-08-09T19:20:16.952Z,92455.41
2022-08-09T19:24:37.831Z,92462.41
2022-08-09T19:30:22.497Z,92457.38
2022-08-09T19:33:28.632Z,92457.53
2022-08-09T19:36:32.776Z,92465.16
2022-08-09T19:40:02.891Z,92465.69
2022-08-09T19:43:00.898Z,92460.25
2022-08-09T19:46:07.939Z,92461.53
2022-08-09T19:50:08.425Z,92461.13
2022-08-09T19:52:36.688Z,92456.38
2022-08-09T19:56:02.366Z,92468.00
2022-08-09T19:59:40.477Z,92474.03
2022-08-09T20:04:07.357Z,92477.59
2022-08-09T20:05:53.289Z,92469.16
2022-08-09T20:08:59.382Z,92464.53
2022-08-09T20:12:04.358Z,92481.59
2022-08-09T20:16:34.352Z,92486.50
2022-08-09T20:18:34.263Z,92472.00
2022-08-09T20:21:54.810Z,92468.38
2022-08-09T20:25:04.841Z,92480.28
2022-08-09T20:28:09.105Z,92479.81
2022-08-09T20:31:18.155Z,92481.94
2022-08-09T20:34:30.165Z,92477.63
2022-08-09T20:38:19.533Z,92479.47
2022-08-09T20:41:00.159Z,92476.44
2022-08-09T20:44:10.245Z,92472.88
2022-08-09T20:47:23.873Z,92470.72
2022-08-09T20:53:57.415Z,92489.47
2022-08-09T20:57:08.778Z,92479.72
2022-08-09T21:00:19.825Z,92478.81
2022-08-09T21:03:27.414Z,92475.34
2022-08-09T21:06:39.038Z,92478.94
2022-08-09T21:09:57.013Z,92469.19
2022-08-09T21:13:02.468Z,92490.38
2022-08-09T21:16:19.485Z,92484.22
2022-08-09T21:20:19.144Z,92496.72
2022-08-09T21:22:53.879Z,92487.72
2022-08-09T21:26:00.291Z,92494.66
2022-08-09T21:29:11.928Z,92496.38
2022-08-09T21:32:18.784Z,92496.19
2022-08-09T21:35:23.685Z,92497.09
2022-08-09T21:38:31.187Z,92503.53
2022-08-09T21:42:05.610Z,92494.66
2022-08-09T21:45:02.034Z,92517.00
2022-08-09T21:48:10.131Z,92525.16
2022-08-09T21:51:22.472Z,92514.66
2022-08-09T21:54:41.385Z,92514.28
2022-08-09T21:57:58.890Z,92530.03
2022-08-09T22:01:04.123Z,92513.75
2022-08-09T22:04:15.889Z,92519.34
2022-08-09T22:07:39.783Z,92527.53
2022-08-09T22:11:49.878Z,92521.16
2022-08-09T22:14:15.465Z,92515.91
2022-08-09T22:17:20.040Z,92514.06
2022-08-09T22:20:27.420Z,92506.31
2022-08-09T22:23:35.603Z,92517.44
2022-08-09T22:26:58.642Z,92503.84
2022-08-09T22:30:02.573Z,92521.13
2022-08-09T22:33:37.558Z,92518.69
2022-08-09T22:36:59.651Z,92511.44
2022-08-09T22:40:04.012Z,92521.19
2022-08-09T22:43:08.647Z,92513.91
2022-08-09T22:48:10.455Z,92523.69
2022-08-09T22:49:44.394Z,92522.81
2022-08-09T22:52:58.009Z,92507.88
2022-08-09T22:56:30.063Z,92520.22
2022-08-09T22:59:57.932Z,92513.84
2022-08-09T23:06:14.086Z,92506.34
2022-08-09T23:09:17.906Z,92515.44
2022-08-09T23:12:22.250Z,92512.38
2022-08-09T23:15:26.398Z,92524.50
2022-08-09T23:18:34.097Z,92519.66
2022-08-09T23:21:40.043Z,92526.78
2022-08-09T23:24:48.636Z,92525.13
2022-08-09T23:28:14.879Z,92523.56
2022-08-09T23:31:16.743Z,92528.00
2022-08-09T23:34:20.757Z,92520.09
2022-08-09T23:37:25.643Z,92495.41
2022-08-09T23:40:29.625Z,92516.91
2022-08-09T23:43:33.561Z,92520.56
2022-08-09T23:46:40.499Z,92521.84
2022-08-09T23:49:44.255Z,92524.00
2022-08-09T23:52:48.307Z,92507.88
2022-08-09T23:55:55.635Z,92518.53
2022-08-09T23:59:01.193Z,92525.72
